Waldron, Michigan
Current Conditions -  °F | °C
As of 8:55 PM on Monday 24 Nov 2014 (Local Time) from KJYM Reporting Station
Overcast Overcast  
Wind Chill: 20°   Ceiling: 1400
Heat Index: 33°   Visibility: 10mi
Dew Point: 29°   Wind: 21mph
Humidity: 87%   Direction: 240°WSW
Pressure: 29.64"   Gusts: 28mph
Location:  41.73°N, 84.42°W
Report Text: KJYM 250155Z AUTO 24018G24KT 10SM OVC014 00/M02 A2964 RMK AO2 T00031017
Loading
Personal Weather Stations






























Interactive Weather Map New forecast layout! Learn more

10-Day Weather Forecast

Advertisements
Track Severe Weather on mobile